New Rome, Ohio
Current Conditions -  °F | °C
As of 6:50 PM on Thursday 27 Nov 2014 (Local Time) from KTZR Reporting Station
Overcast Overcast  
Wind Chill: 20°   Ceiling: 3000
Heat Index: 30°   Visibility: 10mi
Dew Point: 25°   Wind: 14mph
Humidity: 80%   Direction: 280°W
Pressure: 30.29"   Gusts: 20mph
Location:  39.9618°N, 83.129°W
Report Text: KTZR 272350Z 28012G17KT 10SM OVC030 M01/M04 A3029 RMK SNE25
Loading
Personal Weather Stations






























Interactive Weather Map New forecast layout! Learn more

10-Day Weather Forecast

Advertisements
Track Severe Weather on mobile